sensor_id;sensor_type;location;lat;lon;timestamp;P1;durP1;ratioP1;P2;durP2;ratioP2
29720;SDS011;23665;51.044;3.748;2022-07-06T00:01:54;5.13;;;1.70;;
29720;SDS011;23665;51.044;3.748;2022-07-06T00:04:20;6.50;;;2.13;;
29720;SDS011;23665;51.044;3.748;2022-07-06T00:06:46;5.43;;;1.83;;
29720;SDS011;23665;51.044;3.748;2022-07-06T00:09:12;6.27;;;1.67;;
29720;SDS011;23665;51.044;3.748;2022-07-06T00:11:38;5.57;;;2.07;;
29720;SDS011;23665;51.044;3.748;2022-07-06T00:14:04;4.07;;;1.73;;
29720;SDS011;23665;51.044;3.748;2022-07-06T00:16:30;5.40;;;1.90;;
29720;SDS011;23665;51.044;3.748;2022-07-06T00:18:55;7.47;;;2.37;;
29720;SDS011;23665;51.044;3.748;2022-07-06T00:21:21;5.10;;;2.13;;
29720;SDS011;23665;51.044;3.748;2022-07-06T00:23:47;4.37;;;1.70;;
29720;SDS011;23665;51.044;3.748;2022-07-06T00:26:13;4.47;;;1.97;;
29720;SDS011;23665;51.044;3.748;2022-07-06T00:28:39;4.37;;;1.83;;
29720;SDS011;23665;51.044;3.748;2022-07-06T00:31:05;5.37;;;2.30;;
29720;SDS011;23665;51.044;3.748;2022-07-06T00:33:31;5.57;;;1.77;;
29720;SDS011;23665;51.044;3.748;2022-07-06T00:35:57;4.73;;;1.90;;
29720;SDS011;23665;51.044;3.748;2022-07-06T00:38:23;10.23;;;2.23;;
29720;SDS011;23665;51.044;3.748;2022-07-06T00:40:48;6.67;;;2.00;;
29720;SDS011;23665;51.044;3.748;2022-07-06T00:43:14;3.97;;;1.60;;
29720;SDS011;23665;51.044;3.748;2022-07-06T00:45:40;8.63;;;1.80;;
29720;SDS011;23665;51.044;3.748;2022-07-06T00:48:06;4.93;;;1.77;;
29720;SDS011;23665;51.044;3.748;2022-07-06T00:50:32;4.53;;;1.77;;
29720;SDS011;23665;51.044;3.748;2022-07-06T00:53:03;6.40;;;2.27;;
29720;SDS011;23665;51.044;3.748;2022-07-06T00:55:31;9.57;;;1.70;;
29720;SDS011;23665;51.044;3.748;2022-07-06T00:58:02;6.67;;;1.70;;
29720;SDS011;23665;51.044;3.748;2022-07-06T01:00:29;6.60;;;2.13;;
29720;SDS011;23665;51.044;3.748;2022-07-06T01:02:55;6.00;;;2.23;;
29720;SDS011;23665;51.044;3.748;2022-07-06T01:05:21;4.07;;;1.80;;
29720;SDS011;23665;51.044;3.748;2022-07-06T01:07:47;4.40;;;2.10;;
29720;SDS011;23665;51.044;3.748;2022-07-06T01:10:14;7.77;;;2.70;;
29720;SDS011;23665;51.044;3.748;2022-07-06T01:12:43;3.40;;;1.53;;
29720;SDS011;23665;51.044;3.748;2022-07-06T01:15:11;4.27;;;1.90;;
29720;SDS011;23665;51.044;3.748;2022-07-06T01:17:42;4.13;;;1.90;;
29720;SDS011;23665;51.044;3.748;2022-07-06T01:20:12;8.00;;;2.10;;
29720;SDS011;23665;51.044;3.748;2022-07-06T01:22:38;8.47;;;1.87;;
29720;SDS011;23665;51.044;3.748;2022-07-06T01:25:04;6.90;;;2.30;;
29720;SDS011;23665;51.044;3.748;2022-07-06T01:27:32;8.43;;;2.40;;
29720;SDS011;23665;51.044;3.748;2022-07-06T01:30:14;4.53;;;1.90;;
29720;SDS011;23665;51.044;3.748;2022-07-06T01:32:41;5.50;;;1.50;;
29720;SDS011;23665;51.044;3.748;2022-07-06T01:35:09;3.90;;;1.40;;
29720;SDS011;23665;51.044;3.748;2022-07-06T01:37:37;6.90;;;1.83;;
29720;SDS011;23665;51.044;3.748;2022-07-06T01:40:04;4.63;;;1.50;;
29720;SDS011;23665;51.044;3.748;2022-07-06T01:42:31;6.60;;;2.00;;
29720;SDS011;23665;51.044;3.748;2022-07-06T01:44:58;7.53;;;1.83;;
29720;SDS011;23665;51.044;3.748;2022-07-06T01:47:23;3.80;;;1.60;;
29720;SDS011;23665;51.044;3.748;2022-07-06T01:49:49;4.60;;;1.73;;
29720;SDS011;23665;51.044;3.748;2022-07-06T01:52:15;4.23;;;2.07;;
29720;SDS011;23665;51.044;3.748;2022-07-06T01:54:41;4.30;;;1.67;;
29720;SDS011;23665;51.044;3.748;2022-07-06T01:57:07;5.17;;;1.50;;
29720;SDS011;23665;51.044;3.748;2022-07-06T01:59:32;7.00;;;1.80;;
29720;SDS011;23665;51.044;3.748;2022-07-06T02:01:58;4.03;;;1.43;;
29720;SDS011;23665;51.044;3.748;2022-07-06T02:04:24;4.83;;;2.00;;
29720;SDS011;23665;51.044;3.748;2022-07-06T02:06:50;8.23;;;2.20;;
29720;SDS011;23665;51.044;3.748;2022-07-06T02:09:15;5.70;;;1.80;;
29720;SDS011;23665;51.044;3.748;2022-07-06T02:11:41;3.63;;;1.80;;
29720;SDS011;23665;51.044;3.748;2022-07-06T02:14:07;5.83;;;1.90;;
29720;SDS011;23665;51.044;3.748;2022-07-06T02:16:33;4.73;;;1.83;;
29720;SDS011;23665;51.044;3.748;2022-07-06T02:18:59;6.83;;;1.83;;
29720;SDS011;23665;51.044;3.748;2022-07-06T02:21:25;7.80;;;1.60;;
29720;SDS011;23665;51.044;3.748;2022-07-06T02:23:51;3.97;;;1.90;;
29720;SDS011;23665;51.044;3.748;2022-07-06T02:26:16;3.80;;;1.40;;
29720;SDS011;23665;51.044;3.748;2022-07-06T02:28:42;6.33;;;1.70;;
29720;SDS011;23665;51.044;3.748;2022-07-06T02:31:08;5.07;;;1.77;;
29720;SDS011;23665;51.044;3.748;2022-07-06T02:33:34;4.27;;;1.90;;
29720;SDS011;23665;51.044;3.748;2022-07-06T02:36:00;5.73;;;1.83;;
29720;SDS011;23665;51.044;3.748;2022-07-06T02:38:26;5.87;;;1.83;;
29720;SDS011;23665;51.044;3.748;2022-07-06T02:40:51;4.83;;;1.87;;
29720;SDS011;23665;51.044;3.748;2022-07-06T02:43:17;4.40;;;1.77;;
29720;SDS011;23665;51.044;3.748;2022-07-06T02:45:42;4.67;;;1.97;;
29720;SDS011;23665;51.044;3.748;2022-07-06T02:48:08;10.17;;;2.10;;
29720;SDS011;23665;51.044;3.748;2022-07-06T02:50:34;6.43;;;1.77;;
29720;SDS011;23665;51.044;3.748;2022-07-06T02:52:59;6.17;;;1.50;;
29720;SDS011;23665;51.044;3.748;2022-07-06T02:55:26;4.80;;;1.50;;
29720;SDS011;23665;51.044;3.748;2022-07-06T02:57:52;7.10;;;2.20;;
29720;SDS011;23665;51.044;3.748;2022-07-06T03:00:19;4.37;;;1.80;;
29720;SDS011;23665;51.044;3.748;2022-07-06T03:02:44;4.63;;;1.73;;
29720;SDS011;23665;51.044;3.748;2022-07-06T03:05:10;3.10;;;1.47;;
29720;SDS011;23665;51.044;3.748;2022-07-06T03:07:36;5.20;;;1.63;;
29720;SDS011;23665;51.044;3.748;2022-07-06T03:10:02;5.33;;;1.80;;
29720;SDS011;23665;51.044;3.748;2022-07-06T03:12:28;5.07;;;1.80;;
29720;SDS011;23665;51.044;3.748;2022-07-06T03:14:53;5.43;;;1.60;;
29720;SDS011;23665;51.044;3.748;2022-07-06T03:17:19;3.70;;;1.80;;
29720;SDS011;23665;51.044;3.748;2022-07-06T03:19:46;5.17;;;1.93;;
29720;SDS011;23665;51.044;3.748;2022-07-06T03:22:12;4.33;;;1.80;;
29720;SDS011;23665;51.044;3.748;2022-07-06T03:24:38;5.37;;;2.00;;
29720;SDS011;23665;51.044;3.748;2022-07-06T03:27:03;6.30;;;2.20;;
29720;SDS011;23665;51.044;3.748;2022-07-06T03:29:29;7.00;;;2.07;;
29720;SDS011;23665;51.044;3.748;2022-07-06T03:31:55;4.37;;;1.70;;
29720;SDS011;23665;51.044;3.748;2022-07-06T03:34:21;6.33;;;2.10;;
29720;SDS011;23665;51.044;3.748;2022-07-06T03:36:46;5.27;;;2.90;;
29720;SDS011;23665;51.044;3.748;2022-07-06T03:39:12;8.30;;;3.47;;
29720;SDS011;23665;51.044;3.748;2022-07-06T03:41:38;6.00;;;2.33;;
29720;SDS011;23665;51.044;3.748;2022-07-06T03:44:03;5.87;;;2.40;;
29720;SDS011;23665;51.044;3.748;2022-07-06T03:46:29;4.47;;;1.87;;
29720;SDS011;23665;51.044;3.748;2022-07-06T03:48:55;6.57;;;3.07;;
29720;SDS011;23665;51.044;3.748;2022-07-06T03:51:21;7.00;;;2.40;;
29720;SDS011;23665;51.044;3.748;2022-07-06T03:53:47;7.00;;;3.23;;
29720;SDS011;23665;51.044;3.748;2022-07-06T03:56:12;3.00;;;2.00;;
29720;SDS011;23665;51.044;3.748;2022-07-06T03:58:53;6.30;;;2.70;;
29720;SDS011;23665;51.044;3.748;2022-07-06T04:01:22;12.37;;;2.83;;
29720;SDS011;23665;51.044;3.748;2022-07-06T04:03:48;8.37;;;2.37;;
29720;SDS011;23665;51.044;3.748;2022-07-06T04:06:15;5.00;;;2.43;;
29720;SDS011;23665;51.044;3.748;2022-07-06T04:08:41;8.97;;;3.73;;
29720;SDS011;23665;51.044;3.748;2022-07-06T04:11:06;5.83;;;2.80;;
29720;SDS011;23665;51.044;3.748;2022-07-06T04:13:32;8.83;;;2.90;;
29720;SDS011;23665;51.044;3.748;2022-07-06T04:15:58;18.27;;;4.83;;
29720;SDS011;23665;51.044;3.748;2022-07-06T04:18:24;6.83;;;3.77;;
29720;SDS011;23665;51.044;3.748;2022-07-06T04:20:50;6.60;;;3.60;;
29720;SDS011;23665;51.044;3.748;2022-07-06T04:23:15;5.33;;;2.27;;
29720;SDS011;23665;51.044;3.748;2022-07-06T04:25:41;7.67;;;4.20;;
29720;SDS011;23665;51.044;3.748;2022-07-06T04:28:07;9.40;;;4.27;;
29720;SDS011;23665;51.044;3.748;2022-07-06T04:30:33;9.23;;;4.23;;
29720;SDS011;23665;51.044;3.748;2022-07-06T04:32:59;9.17;;;3.40;;
29720;SDS011;23665;51.044;3.748;2022-07-06T04:35:25;11.67;;;4.07;;
29720;SDS011;23665;51.044;3.748;2022-07-06T04:37:50;9.30;;;3.57;;
29720;SDS011;23665;51.044;3.748;2022-07-06T04:40:16;6.37;;;2.50;;
29720;SDS011;23665;51.044;3.748;2022-07-06T04:42:42;9.37;;;3.93;;
29720;SDS011;23665;51.044;3.748;2022-07-06T04:45:08;10.60;;;3.83;;
29720;SDS011;23665;51.044;3.748;2022-07-06T04:47:34;14.07;;;4.13;;
29720;SDS011;23665;51.044;3.748;2022-07-06T04:50:00;8.03;;;3.43;;
29720;SDS011;23665;51.044;3.748;2022-07-06T04:52:27;6.97;;;3.60;;
29720;SDS011;23665;51.044;3.748;2022-07-06T04:54:56;8.00;;;2.73;;
29720;SDS011;23665;51.044;3.748;2022-07-06T04:57:21;6.60;;;2.27;;
29720;SDS011;23665;51.044;3.748;2022-07-06T04:59:47;6.67;;;2.07;;
29720;SDS011;23665;51.044;3.748;2022-07-06T05:02:13;8.03;;;2.93;;
29720;SDS011;23665;51.044;3.748;2022-07-06T05:04:39;5.53;;;2.23;;
29720;SDS011;23665;51.044;3.748;2022-07-06T05:07:04;6.97;;;2.90;;
29720;SDS011;23665;51.044;3.748;2022-07-06T14:50:09;8.03;;;2.60;;
29720;SDS011;23665;51.044;3.748;2022-07-06T14:52:36;10.23;;;3.93;;
29720;SDS011;23665;51.044;3.748;2022-07-06T14:55:02;8.63;;;2.70;;
29720;SDS011;23665;51.044;3.748;2022-07-06T14:57:28;9.60;;;2.73;;
29720;SDS011;23665;51.044;3.748;2022-07-06T14:59:54;8.07;;;2.60;;
29720;SDS011;23665;51.044;3.748;2022-07-06T15:02:19;5.50;;;2.70;;
29720;SDS011;23665;51.044;3.748;2022-07-06T15:04:45;9.13;;;2.40;;
29720;SDS011;23665;51.044;3.748;2022-07-06T15:07:10;4.90;;;2.30;;
29720;SDS011;23665;51.044;3.748;2022-07-06T15:09:36;6.93;;;2.60;;
29720;SDS011;23665;51.044;3.748;2022-07-06T15:12:02;6.40;;;2.37;;
29720;SDS011;23665;51.044;3.748;2022-07-06T15:14:28;11.93;;;2.30;;
29720;SDS011;23665;51.044;3.748;2022-07-06T15:16:54;14.17;;;2.43;;
29720;SDS011;23665;51.044;3.748;2022-07-06T15:19:20;11.67;;;2.23;;
29720;SDS011;23665;51.044;3.748;2022-07-06T15:21:46;8.00;;;2.10;;
29720;SDS011;23665;51.044;3.748;2022-07-06T15:24:11;7.57;;;1.73;;
29720;SDS011;23665;51.044;3.748;2022-07-06T15:26:37;7.53;;;1.63;;
29720;SDS011;23665;51.044;3.748;2022-07-06T15:29:03;6.03;;;1.50;;
29720;SDS011;23665;51.044;3.748;2022-07-06T15:31:29;6.20;;;1.20;;
29720;SDS011;23665;51.044;3.748;2022-07-06T15:33:56;7.57;;;1.33;;
29720;SDS011;23665;51.044;3.748;2022-07-06T15:36:22;4.53;;;1.13;;
29720;SDS011;23665;51.044;3.748;2022-07-06T15:38:47;6.90;;;1.30;;
29720;SDS011;23665;51.044;3.748;2022-07-06T15:41:13;6.33;;;0.90;;
29720;SDS011;23665;51.044;3.748;2022-07-06T15:43:39;5.00;;;1.57;;
29720;SDS011;23665;51.044;3.748;2022-07-06T15:46:05;4.80;;;1.20;;
29720;SDS011;23665;51.044;3.748;2022-07-06T15:48:31;6.93;;;1.10;;
29720;SDS011;23665;51.044;3.748;2022-07-06T15:50:58;3.43;;;1.13;;
29720;SDS011;23665;51.044;3.748;2022-07-06T15:53:24;2.87;;;0.93;;
29720;SDS011;23665;51.044;3.748;2022-07-06T15:55:50;8.57;;;1.27;;
29720;SDS011;23665;51.044;3.748;2022-07-06T15:58:16;5.57;;;1.37;;
29720;SDS011;23665;51.044;3.748;2022-07-06T16:00:42;4.03;;;1.53;;
29720;SDS011;23665;51.044;3.748;2022-07-06T16:03:08;9.50;;;2.10;;
29720;SDS011;23665;51.044;3.748;2022-07-06T16:05:34;5.33;;;1.20;;
29720;SDS011;23665;51.044;3.748;2022-07-06T16:08:00;4.97;;;1.83;;
29720;SDS011;23665;51.044;3.748;2022-07-06T16:10:26;6.10;;;1.00;;
29720;SDS011;23665;51.044;3.748;2022-07-06T16:12:53;3.03;;;0.70;;
29720;SDS011;23665;51.044;3.748;2022-07-06T16:15:20;4.27;;;1.00;;
29720;SDS011;23665;51.044;3.748;2022-07-06T16:17:46;4.53;;;0.63;;
29720;SDS011;23665;51.044;3.748;2022-07-06T16:20:12;2.90;;;1.10;;
29720;SDS011;23665;51.044;3.748;2022-07-06T16:22:39;8.07;;;1.73;;
29720;SDS011;23665;51.044;3.748;2022-07-06T16:25:05;4.83;;;1.20;;
29720;SDS011;23665;51.044;3.748;2022-07-06T16:27:31;3.40;;;1.17;;
29720;SDS011;23665;51.044;3.748;2022-07-06T16:29:57;3.30;;;0.83;;
29720;SDS011;23665;51.044;3.748;2022-07-06T16:32:23;5.90;;;0.73;;
29720;SDS011;23665;51.044;3.748;2022-07-06T16:34:48;1.60;;;0.40;;
29720;SDS011;23665;51.044;3.748;2022-07-06T16:37:14;2.47;;;0.33;;
29720;SDS011;23665;51.044;3.748;2022-07-06T16:39:40;5.30;;;0.60;;
29720;SDS011;23665;51.044;3.748;2022-07-06T16:42:07;0.43;;;0.30;;
29720;SDS011;23665;51.044;3.748;2022-07-06T16:44:33;1.63;;;0.60;;
29720;SDS011;23665;51.044;3.748;2022-07-06T16:46:59;3.47;;;0.50;;
29720;SDS011;23665;51.044;3.748;2022-07-06T16:49:24;3.13;;;0.40;;
29720;SDS011;23665;51.044;3.748;2022-07-06T16:51:50;3.33;;;0.60;;
29720;SDS011;23665;51.044;3.748;2022-07-06T16:54:16;2.33;;;0.40;;
29720;SDS011;23665;51.044;3.748;2022-07-06T16:56:41;0.70;;;0.30;;
29720;SDS011;23665;51.044;3.748;2022-07-06T16:59:07;2.73;;;0.63;;
29720;SDS011;23665;51.044;3.748;2022-07-06T17:01:33;4.63;;;0.43;;
29720;SDS011;23665;51.044;3.748;2022-07-06T17:03:59;0.70;;;0.30;;
29720;SDS011;23665;51.044;3.748;2022-07-06T17:06:26;1.00;;;0.30;;
29720;SDS011;23665;51.044;3.748;2022-07-06T17:08:52;2.50;;;0.40;;
29720;SDS011;23665;51.044;3.748;2022-07-06T17:11:19;2.53;;;0.30;;
29720;SDS011;23665;51.044;3.748;2022-07-06T17:13:45;4.37;;;0.50;;
29720;SDS011;23665;51.044;3.748;2022-07-06T17:16:11;0.20;;;0.20;;
29720;SDS011;23665;51.044;3.748;2022-07-06T17:18:38;1.47;;;0.30;;
29720;SDS011;23665;51.044;3.748;2022-07-06T17:21:04;1.60;;;0.50;;
29720;SDS011;23665;51.044;3.748;2022-07-06T17:23:30;3.10;;;0.30;;
29720;SDS011;23665;51.044;3.748;2022-07-06T17:25:56;2.30;;;0.80;;
29720;SDS011;23665;51.044;3.748;2022-07-06T17:28:23;1.17;;;0.40;;
29720;SDS011;23665;51.044;3.748;2022-07-06T17:30:49;1.00;;;0.33;;
29720;SDS011;23665;51.044;3.748;2022-07-06T17:33:15;1.37;;;0.30;;
29720;SDS011;23665;51.044;3.748;2022-07-06T17:35:41;0.90;;;0.40;;
29720;SDS011;23665;51.044;3.748;2022-07-06T17:38:07;2.60;;;0.70;;
29720;SDS011;23665;51.044;3.748;2022-07-06T17:40:33;0.90;;;0.30;;
29720;SDS011;23665;51.044;3.748;2022-07-06T17:42:59;0.50;;;0.30;;
29720;SDS011;23665;51.044;3.748;2022-07-06T17:45:25;1.23;;;0.40;;
29720;SDS011;23665;51.044;3.748;2022-07-06T17:47:51;1.60;;;0.60;;
29720;SDS011;23665;51.044;3.748;2022-07-06T17:50:17;2.30;;;0.60;;
29720;SDS011;23665;51.044;3.748;2022-07-06T17:52:43;3.47;;;0.77;;
29720;SDS011;23665;51.044;3.748;2022-07-06T17:55:09;2.73;;;0.60;;
29720;SDS011;23665;51.044;3.748;2022-07-06T17:57:35;1.00;;;0.50;;
29720;SDS011;23665;51.044;3.748;2022-07-06T18:00:01;2.07;;;0.53;;
29720;SDS011;23665;51.044;3.748;2022-07-06T18:02:28;1.20;;;0.50;;
29720;SDS011;23665;51.044;3.748;2022-07-06T18:04:53;1.30;;;0.50;;
29720;SDS011;23665;51.044;3.748;2022-07-06T18:07:19;1.23;;;0.53;;
29720;SDS011;23665;51.044;3.748;2022-07-06T18:09:45;2.77;;;0.77;;
29720;SDS011;23665;51.044;3.748;2022-07-06T18:12:11;2.40;;;0.70;;
29720;SDS011;23665;51.044;3.748;2022-07-06T18:14:36;1.60;;;0.47;;
29720;SDS011;23665;51.044;3.748;2022-07-06T18:17:02;2.53;;;0.73;;
29720;SDS011;23665;51.044;3.748;2022-07-06T18:19:28;1.00;;;0.50;;
29720;SDS011;23665;51.044;3.748;2022-07-06T18:21:54;3.07;;;0.80;;
29720;SDS011;23665;51.044;3.748;2022-07-06T18:24:20;3.37;;;1.00;;
29720;SDS011;23665;51.044;3.748;2022-07-06T18:26:45;1.27;;;0.73;;
29720;SDS011;23665;51.044;3.748;2022-07-06T18:29:11;2.97;;;1.73;;
29720;SDS011;23665;51.044;3.748;2022-07-06T18:31:38;2.83;;;0.80;;
29720;SDS011;23665;51.044;3.748;2022-07-06T18:34:04;2.20;;;0.80;;
29720;SDS011;23665;51.044;3.748;2022-07-06T18:36:30;2.27;;;0.83;;
29720;SDS011;23665;51.044;3.748;2022-07-06T18:38:57;6.00;;;2.57;;
29720;SDS011;23665;51.044;3.748;2022-07-06T18:41:23;4.20;;;1.10;;
29720;SDS011;23665;51.044;3.748;2022-07-06T18:43:49;4.00;;;1.00;;
29720;SDS011;23665;51.044;3.748;2022-07-06T18:46:15;2.27;;;1.10;;
29720;SDS011;23665;51.044;3.748;2022-07-06T18:48:41;4.97;;;1.33;;
29720;SDS011;23665;51.044;3.748;2022-07-06T18:51:07;3.37;;;1.20;;
29720;SDS011;23665;51.044;3.748;2022-07-06T18:53:33;3.00;;;1.77;;
29720;SDS011;23665;51.044;3.748;2022-07-06T18:55:58;5.57;;;2.17;;
29720;SDS011;23665;51.044;3.748;2022-07-06T18:58:24;3.33;;;2.33;;
29720;SDS011;23665;51.044;3.748;2022-07-06T19:00:50;3.60;;;1.50;;
29720;SDS011;23665;51.044;3.748;2022-07-06T19:03:16;4.17;;;1.97;;
29720;SDS011;23665;51.044;3.748;2022-07-06T19:05:41;3.60;;;2.00;;
29720;SDS011;23665;51.044;3.748;2022-07-06T19:08:08;3.40;;;1.70;;
29720;SDS011;23665;51.044;3.748;2022-07-06T19:10:35;5.07;;;2.40;;
29720;SDS011;23665;51.044;3.748;2022-07-06T19:13:01;6.40;;;1.83;;
29720;SDS011;23665;51.044;3.748;2022-07-06T19:15:28;4.77;;;2.33;;
29720;SDS011;23665;51.044;3.748;2022-07-06T19:17:53;4.40;;;2.07;;
29720;SDS011;23665;51.044;3.748;2022-07-06T19:20:20;7.87;;;2.23;;
29720;SDS011;23665;51.044;3.748;2022-07-06T19:22:46;4.07;;;2.20;;
29720;SDS011;23665;51.044;3.748;2022-07-06T19:25:12;4.67;;;2.07;;
29720;SDS011;23665;51.044;3.748;2022-07-06T19:27:38;5.57;;;2.33;;
29720;SDS011;23665;51.044;3.748;2022-07-06T19:30:05;3.67;;;2.10;;
29720;SDS011;23665;51.044;3.748;2022-07-06T19:32:32;5.43;;;2.20;;
29720;SDS011;23665;51.044;3.748;2022-07-06T19:34:58;3.93;;;2.20;;
29720;SDS011;23665;51.044;3.748;2022-07-06T19:37:24;4.10;;;2.13;;
29720;SDS011;23665;51.044;3.748;2022-07-06T19:39:50;3.80;;;1.80;;
29720;SDS011;23665;51.044;3.748;2022-07-06T19:42:16;5.47;;;2.47;;
29720;SDS011;23665;51.044;3.748;2022-07-06T19:44:42;4.13;;;1.80;;
29720;SDS011;23665;51.044;3.748;2022-07-06T19:47:08;3.27;;;1.50;;
29720;SDS011;23665;51.044;3.748;2022-07-06T19:49:33;4.67;;;1.90;;
29720;SDS011;23665;51.044;3.748;2022-07-06T19:51:59;4.37;;;1.90;;
29720;SDS011;23665;51.044;3.748;2022-07-06T19:54:25;4.70;;;2.20;;
29720;SDS011;23665;51.044;3.748;2022-07-06T19:56:50;4.57;;;1.80;;
29720;SDS011;23665;51.044;3.748;2022-07-06T19:59:16;5.03;;;2.23;;
29720;SDS011;23665;51.044;3.748;2022-07-06T20:01:42;6.83;;;2.70;;
29720;SDS011;23665;51.044;3.748;2022-07-06T20:04:08;4.90;;;1.67;;
29720;SDS011;23665;51.044;3.748;2022-07-06T20:06:34;5.07;;;2.67;;
29720;SDS011;23665;51.044;3.748;2022-07-06T20:09:02;4.90;;;2.07;;
29720;SDS011;23665;51.044;3.748;2022-07-06T20:11:28;3.33;;;1.60;;
29720;SDS011;23665;51.044;3.748;2022-07-06T20:13:54;6.67;;;1.80;;
29720;SDS011;23665;51.044;3.748;2022-07-06T20:16:20;4.20;;;2.00;;
29720;SDS011;23665;51.044;3.748;2022-07-06T20:18:46;7.83;;;2.70;;
29720;SDS011;23665;51.044;3.748;2022-07-06T20:21:12;4.47;;;2.60;;
29720;SDS011;23665;51.044;3.748;2022-07-06T20:23:37;6.97;;;2.23;;
29720;SDS011;23665;51.044;3.748;2022-07-06T20:26:03;4.77;;;1.73;;
29720;SDS011;23665;51.044;3.748;2022-07-06T20:28:29;7.57;;;2.40;;
29720;SDS011;23665;51.044;3.748;2022-07-06T20:30:54;4.47;;;2.17;;
29720;SDS011;23665;51.044;3.748;2022-07-06T20:33:20;5.97;;;2.00;;
29720;SDS011;23665;51.044;3.748;2022-07-06T20:35:46;7.50;;;2.30;;
29720;SDS011;23665;51.044;3.748;2022-07-06T20:38:12;4.03;;;2.20;;
29720;SDS011;23665;51.044;3.748;2022-07-06T20:40:37;9.90;;;2.03;;
29720;SDS011;23665;51.044;3.748;2022-07-06T20:43:03;4.07;;;2.30;;
29720;SDS011;23665;51.044;3.748;2022-07-06T20:45:29;7.90;;;2.50;;
29720;SDS011;23665;51.044;3.748;2022-07-06T20:47:56;5.43;;;2.40;;
29720;SDS011;23665;51.044;3.748;2022-07-06T20:50:21;5.40;;;2.83;;
29720;SDS011;23665;51.044;3.748;2022-07-06T20:52:47;6.70;;;2.53;;
29720;SDS011;23665;51.044;3.748;2022-07-06T20:55:13;8.27;;;3.00;;
29720;SDS011;23665;51.044;3.748;2022-07-06T20:57:38;4.20;;;2.70;;
29720;SDS011;23665;51.044;3.748;2022-07-06T21:00:04;8.30;;;3.10;;
29720;SDS011;23665;51.044;3.748;2022-07-06T21:02:31;5.20;;;2.83;;
29720;SDS011;23665;51.044;3.748;2022-07-06T21:04:56;10.67;;;3.87;;
29720;SDS011;23665;51.044;3.748;2022-07-06T21:07:22;6.97;;;3.07;;
29720;SDS011;23665;51.044;3.748;2022-07-06T21:09:48;5.73;;;2.90;;
29720;SDS011;23665;51.044;3.748;2022-07-06T21:12:13;6.77;;;2.53;;
29720;SDS011;23665;51.044;3.748;2022-07-06T21:14:39;5.23;;;2.70;;
29720;SDS011;23665;51.044;3.748;2022-07-06T21:17:05;5.97;;;3.10;;
29720;SDS011;23665;51.044;3.748;2022-07-06T21:19:32;6.93;;;2.60;;
29720;SDS011;23665;51.044;3.748;2022-07-06T21:21:57;6.70;;;2.80;;
29720;SDS011;23665;51.044;3.748;2022-07-06T21:24:23;7.07;;;2.87;;
29720;SDS011;23665;51.044;3.748;2022-07-06T21:26:49;5.57;;;2.53;;
29720;SDS011;23665;51.044;3.748;2022-07-06T21:29:15;5.13;;;2.80;;
29720;SDS011;23665;51.044;3.748;2022-07-06T21:31:41;7.33;;;2.63;;
29720;SDS011;23665;51.044;3.748;2022-07-06T21:34:07;5.40;;;2.57;;
29720;SDS011;23665;51.044;3.748;2022-07-06T21:36:32;4.33;;;2.10;;
29720;SDS011;23665;51.044;3.748;2022-07-06T21:38:58;5.10;;;2.33;;
29720;SDS011;23665;51.044;3.748;2022-07-06T21:41:24;5.30;;;2.50;;
29720;SDS011;23665;51.044;3.748;2022-07-06T21:43:50;5.97;;;2.37;;
29720;SDS011;23665;51.044;3.748;2022-07-06T21:46:15;5.30;;;1.90;;
29720;SDS011;23665;51.044;3.748;2022-07-06T21:48:41;11.70;;;2.40;;
29720;SDS011;23665;51.044;3.748;2022-07-06T21:51:07;10.00;;;2.40;;
29720;SDS011;23665;51.044;3.748;2022-07-06T21:53:33;4.93;;;2.20;;
29720;SDS011;23665;51.044;3.748;2022-07-06T21:55:59;7.17;;;2.27;;
29720;SDS011;23665;51.044;3.748;2022-07-06T21:58:24;6.60;;;2.70;;
29720;SDS011;23665;51.044;3.748;2022-07-06T22:00:53;5.10;;;2.13;;
29720;SDS011;23665;51.044;3.748;2022-07-06T22:03:18;6.83;;;2.07;;
29720;SDS011;23665;51.044;3.748;2022-07-06T22:05:44;3.23;;;1.60;;
29720;SDS011;23665;51.044;3.748;2022-07-06T22:08:10;5.00;;;1.70;;
29720;SDS011;23665;51.044;3.748;2022-07-06T22:10:36;2.60;;;1.70;;
29720;SDS011;23665;51.044;3.748;2022-07-06T22:13:02;7.10;;;2.00;;
29720;SDS011;23665;51.044;3.748;2022-07-06T22:15:28;5.20;;;1.57;;
29720;SDS011;23665;51.044;3.748;2022-07-06T22:17:54;3.93;;;1.70;;
29720;SDS011;23665;51.044;3.748;2022-07-06T22:20:20;4.20;;;1.73;;
29720;SDS011;23665;51.044;3.748;2022-07-06T22:22:47;5.13;;;2.00;;
29720;SDS011;23665;51.044;3.748;2022-07-06T22:25:13;3.30;;;1.37;;
29720;SDS011;23665;51.044;3.748;2022-07-06T22:27:40;3.70;;;1.63;;
29720;SDS011;23665;51.044;3.748;2022-07-06T22:30:06;3.40;;;1.70;;
29720;SDS011;23665;51.044;3.748;2022-07-06T22:32:32;5.80;;;2.63;;
29720;SDS011;23665;51.044;3.748;2022-07-06T22:34:58;5.27;;;1.67;;
29720;SDS011;23665;51.044;3.748;2022-07-06T22:37:24;3.40;;;1.60;;
29720;SDS011;23665;51.044;3.748;2022-07-06T22:39:50;7.47;;;1.70;;
29720;SDS011;23665;51.044;3.748;2022-07-06T22:42:36;4.43;;;1.50;;
29720;SDS011;23665;51.044;3.748;2022-07-06T22:45:02;3.37;;;1.67;;
29720;SDS011;23665;51.044;3.748;2022-07-06T22:47:28;6.53;;;1.57;;
29720;SDS011;23665;51.044;3.748;2022-07-06T22:49:54;6.50;;;1.80;;
29720;SDS011;23665;51.044;3.748;2022-07-06T22:52:20;4.90;;;2.03;;
29720;SDS011;23665;51.044;3.748;2022-07-06T22:54:46;3.30;;;1.63;;
29720;SDS011;23665;51.044;3.748;2022-07-06T22:57:11;5.93;;;1.87;;
29720;SDS011;23665;51.044;3.748;2022-07-06T22:59:37;3.40;;;1.93;;
29720;SDS011;23665;51.044;3.748;2022-07-06T23:02:03;12.37;;;2.10;;
29720;SDS011;23665;51.044;3.748;2022-07-06T23:04:31;7.30;;;1.97;;
29720;SDS011;23665;51.044;3.748;2022-07-06T23:06:57;7.40;;;2.17;;
29720;SDS011;23665;51.044;3.748;2022-07-06T23:09:23;3.33;;;1.60;;
29720;SDS011;23665;51.044;3.748;2022-07-06T23:11:48;4.33;;;2.13;;
29720;SDS011;23665;51.044;3.748;2022-07-06T23:14:14;3.17;;;1.57;;
29720;SDS011;23665;51.044;3.748;2022-07-06T23:16:40;7.10;;;2.20;;
29720;SDS011;23665;51.044;3.748;2022-07-06T23:19:06;3.60;;;1.73;;
29720;SDS011;23665;51.044;3.748;2022-07-06T23:21:32;4.83;;;1.60;;
29720;SDS011;23665;51.044;3.748;2022-07-06T23:23:58;4.10;;;2.17;;
29720;SDS011;23665;51.044;3.748;2022-07-06T23:26:25;3.70;;;2.03;;
29720;SDS011;23665;51.044;3.748;2022-07-06T23:28:51;2.90;;;2.10;;
29720;SDS011;23665;51.044;3.748;2022-07-06T23:31:16;4.77;;;2.13;;
29720;SDS011;23665;51.044;3.748;2022-07-06T23:33:42;6.30;;;2.27;;
29720;SDS011;23665;51.044;3.748;2022-07-06T23:36:08;4.23;;;1.70;;
29720;SDS011;23665;51.044;3.748;2022-07-06T23:38:34;7.90;;;2.40;;
29720;SDS011;23665;51.044;3.748;2022-07-06T23:41:00;10.10;;;3.00;;
29720;SDS011;23665;51.044;3.748;2022-07-06T23:43:26;5.00;;;2.50;;
29720;SDS011;23665;51.044;3.748;2022-07-06T23:45:52;6.43;;;2.43;;
29720;SDS011;23665;51.044;3.748;2022-07-06T23:48:18;4.80;;;2.53;;
29720;SDS011;23665;51.044;3.748;2022-07-06T23:50:44;6.00;;;2.43;;
29720;SDS011;23665;51.044;3.748;2022-07-06T23:53:09;5.70;;;3.10;;
29720;SDS011;23665;51.044;3.748;2022-07-06T23:55:35;5.27;;;2.00;;
29720;SDS011;23665;51.044;3.748;2022-07-06T23:58:01;4.40;;;2.13;;
